Headquarters, Valles Caldera, New Mexico Weather observations

Data are for 10 minute period ending at time listed.
 Day   Time   Solar   Ave.   Ave.  Ave.  Vector  Max.   Baro.   Total    
  of    of     Rad.   Air    Rel.  Wind   Wind   Wind  Press.  Precip.   
Year   Day            Temp.  Hum.  Speed  Dir.   Gust                    
2017   (MST)  Kw/m2    F      %     mph   deg.    mph    mb.     in.     
-------------------------------------------------------------------------
  15   10:20   0.01   33.1    94    0.0     0     0.0   733.8    0.00 
  15   10:30   0.01   33.6    94    0.0   117     1.2   733.7    0.02 
  15   10:40   0.01   34.7    92    0.0   142     1.2   733.6    0.02 
  15   10:50   0.01   36.7    86    0.0     0     0.0   733.5    0.01 
  15   11:00   0.02   37.7    81    0.0    98     1.2   733.4    0.02 
  15   11:10   0.01   35.1    87    0.0     0     0.0   733.2    0.01 
  15   11:20   0.01   35.7    87    0.0     0     0.0   733.0    0.00 
  15   11:30   0.01   36.0    85    0.0     0     0.0   733.0    0.01 
  15   11:40   0.01   36.9    83    0.0   250     1.2   732.9    0.00 
  15   11:50   0.01   35.5    85    0.1   181     1.8   732.7    0.00 
  15   12:00   0.02   34.6    86    0.1   181     1.2   732.7    0.00 
  15   12:10   0.02   34.4    85    0.1   164     1.2   732.5    0.00 
  15   12:20   0.02   34.3    85    0.6   170     4.2   732.4    0.01 
  15   12:30   0.02   35.5    81    0.0    73     1.2   732.1    0.00 
  15   12:40   0.03   37.8    75    0.2   185     2.4   732.0    0.00 
  15   12:50   0.03   38.7    71    1.5   186     3.6   731.8    0.00 
  15   13:00   0.03   37.4    72    3.9   197     6.6   731.7    0.00 
  15   13:10   0.03   37.6    73    2.5     3     4.2   731.3    0.00 
  15   13:20   0.03   36.8    76    2.5    50     3.6   731.2    0.00 
  15   13:30   0.03   36.3    78    3.1    52     4.2   731.1    0.00 
  15   13:40   0.03   35.5    80    3.4    39     4.2   731.0    0.00 
  15   13:50   0.02   34.6    84    3.7    50     4.8   731.0    0.00 
  15   14:00   0.02   34.2    84    3.8    40     5.4   731.0    0.00 
  15   14:10   0.02   34.3    84    3.4    38     6.0   730.9    0.00 
  15   14:20   0.02   34.4    83    3.8    43     4.8   730.9    0.00 
  15   14:30   0.02   33.6    87    4.1    42     5.4   730.8    0.00 
  15   14:40   0.03   33.7    87    3.5    36     4.2   730.8    0.00 
  15   14:50   0.03   34.8    83    1.3    44     3.0   730.9    0.00 
  15   15:00   0.02   34.9    80    1.1   357     1.8   730.9    0.00 
  15   15:10   0.02   35.3    80    1.1   256     3.6   731.0    0.00 
  15   15:20   0.02   36.1    78    0.6   308     2.4   731.0    0.00 
  15   15:30   0.02   35.9    78    2.5   249     3.6   731.0    0.00 
  15   15:40   0.01   35.4    80    2.0   270     3.6   731.0    0.00 
  15   15:50   0.01   34.5    85    2.2   319     3.6   730.9    0.00 
  15   16:00   0.01   33.7    88    0.7   334     3.0   730.9    0.01 
  15   16:10   0.01   33.9    89    1.2   196     3.0   731.0    0.00 
  15   16:20   0.01   33.7    88    0.3   216     1.2   730.9    0.00 
  15   16:30   0.01   32.9    90    1.3   178     3.0   730.9    0.01 
  15   16:40   0.00   32.8    91    3.6   221     9.0   730.9    0.00 
  15   16:50   0.00   32.6    91    6.1   205     9.0   731.0    0.00 
  15   17:00   0.00   32.3    92    9.2   211    13.1   731.1    0.00 
  15   17:10   0.00   32.0    92    7.7   220    13.1   731.2    0.00 
  15   17:20   0.00   32.1    92    0.9   235     4.8   731.3    0.00 
  15   17:30   0.00   31.9    92    0.0     0     0.0   731.3    0.00 
  15   17:40   0.00   31.6    93    0.0     0     0.0   731.5    0.00 
  15   17:50   0.00   31.2    94    0.0     0     0.0   731.5    0.00 
  15   18:00   0.00   31.0    94    0.0     0     0.0   731.6    0.00 
  15   18:10   0.00   30.9    94    0.0     0     0.0   731.6    0.00 
  15   18:20   0.00   31.0    94    0.0     0     0.0   731.6    0.00 
  15   18:30   0.00   30.8    94    0.0     0     0.0   731.6    0.00 
  15   18:40   0.00   30.9    94    0.0     0     0.0   731.6    0.00 
  15   18:50   0.00   30.8    94    0.0     0     0.0   731.6    0.00 
  15   19:00   0.00   30.7    94    0.0     0     0.0   731.5    0.00 
  15   19:10   0.00   30.6    93    0.0     0     0.0   731.5    0.00 
  15   19:20   0.00   30.5    93    0.0     0     0.0   731.5    0.00 
  15   19:30   0.00   30.5    93    0.0     0     0.0   731.6    0.00 
  15   19:40   0.00   30.3    93    0.0     0     0.0   731.7    0.00 
  15   19:50   0.00   30.2    94    0.0     0     0.0   731.6    0.00 
  15   20:00   0.00   30.3    94    0.0     0     0.0   731.7    0.00 
  15   20:10   0.00   30.2    94    0.0     0     0.0   731.7    0.00 
  15   20:20   0.00   30.2    93    0.0     0     0.0   731.6    0.00 
  15   20:30   0.00   30.3    93    0.0     0     0.0   731.6    0.00 
  15   20:40   0.00   30.2    93    0.0     0     0.0   731.7    0.00 
  15   20:50   0.00   30.1    93    0.0     0     0.0   731.7    0.00 
  15   21:00   0.00   30.1    93    0.0     0     0.0   731.7    0.00 
  15   21:10   0.00   30.1    93    0.0     0     0.0   731.7    0.00 
  15   21:20   0.00   30.0    92    0.0     0     0.0   731.8    0.00 
  15   21:30   0.00   29.9    93    0.0     0     0.0   731.8    0.00 
  15   21:40   0.00   29.7    93    0.0     0     0.0   731.8    0.00 
  15   21:50   0.00   29.7    93    0.0     0     0.0   731.8    0.00 
  15   22:00   0.00   29.6    93    0.0     0     0.0   731.8    0.00 
  15   22:10   0.00   29.6    93    0.0     0     0.0   731.7    0.00 
  15   22:20   0.00   29.5    94    0.0     0     0.0   731.8    0.00 
  15   22:30   0.00   29.5    94    0.0     0     0.0   731.8    0.00 
  15   22:40   0.00   29.5    94    0.0     0     0.0   731.8    0.00 
  15   22:50   0.00   29.4    94    0.0     0     0.0   731.8    0.00 
  15   23:00   0.00   29.4    94    0.0     0     0.0   731.7    0.00 
  15   23:10   0.00   29.3    94    0.0     0     0.0   731.7    0.00 
  15   23:20   0.00   29.3    94    0.0     0     0.0   731.6    0.00 
  15   23:30   0.00   29.7    92    0.0     0     0.0   731.7    0.00 
  15   23:40   0.00   29.5    92    0.0     0     0.0   731.8    0.00 
  15   23:50   0.00   29.2    93    0.0     0     0.0   731.8    0.00 
  16    0:00   0.00   29.2    93    0.0     0     0.0   731.8    0.00 
  16    0:10   0.00   29.4    93    0.0     0     0.0   731.8    0.00 
  16    0:20   0.00   29.7    91    0.0     0     0.0   731.8    0.00 
  16    0:30   0.00   29.9    90    0.0     0     0.0   731.8    0.00 
  16    0:40   0.00   29.7    91    0.0     0     0.0   731.9    0.00 
  16    0:50   0.00   29.6    91    0.0     0     0.0   731.9    0.00 
  16    1:00   0.00   29.5    92    0.0     0     0.0   731.9    0.00 
  16    1:10   0.00   29.4    92    0.0     0     0.0   731.8    0.00 
  16    1:20   0.00   29.3    92    0.0     0     0.0   731.9    0.00 
  16    1:30   0.00   29.2    92    0.0     0     0.0   731.8    0.00 
  16    1:40   0.00   29.3    92    0.0     0     0.0   731.8    0.00 
  16    1:50   0.00   29.2    92    0.0     0     0.0   731.9    0.00 
  16    2:00   0.00   29.3    91    0.0     0     0.0   731.9    0.00 
  16    2:10   0.00   29.7    88    0.0     0     0.0   731.8    0.00 
  16    2:20   0.00   29.9    87    0.0     0     0.0   731.8    0.00 
  16    2:30   0.00   30.0    87    0.0     0     0.0   731.8    0.00 
  16    2:40   0.00   29.9    86    0.0     0     0.0   731.8    0.00 
  16    2:50   0.00   29.9    86    0.0     0     0.0   731.6    0.00 
  16    3:00   0.00   28.7    88    0.0     0     0.0   731.6    0.00 
  16    3:10   0.00   28.6    89    0.0     0     0.0   731.6    0.00 
  16    3:20   0.00   28.8    87    0.0     0     0.0   731.6    0.00 
  16    3:30   0.00   29.1    86    0.0     0     0.0   731.6    0.00 
  16    3:40   0.00   28.6    86    0.0     0     0.0   731.6    0.00 
  16    3:50   0.00   29.0    85    0.0     0     0.0   731.6    0.00 
  16    4:00   0.00   29.0    85    0.0     0     0.0   731.6    0.00 
  16    4:10   0.00   29.1    85    0.0     0     0.0   731.6    0.00 
  16    4:20   0.00   29.1    84    0.0     0     0.0   731.6    0.00 
  16    4:30   0.00   29.1    84    0.0     0     0.0   731.6    0.00 
  16    4:40   0.00   28.9    84    0.0     0     0.0   731.6    0.00 
  16    4:50   0.00   29.5    84    0.0     0     0.0   731.6    0.00 
  16    5:00   0.00   29.3    84    0.0     0     0.0   731.6    0.00 
  16    5:10   0.00   28.8    84    0.0     0     0.0   731.7    0.00 
  16    5:20   0.00   28.9    84    0.0     0     0.0   731.7    0.00 
  16    5:30   0.00   28.6    85    0.0     0     0.0   731.7    0.00 
  16    5:40   0.00   29.8    81    0.0     0     0.0   731.7    0.00 
  16    5:50   0.00   30.1    80    0.0     0     0.0   731.9    0.00 
  16    6:00   0.00   30.0    81    0.0     0     0.0   732.1    0.00 
  16    6:10   0.00   29.5    84    0.0     0     0.0   732.1    0.00 
  16    6:20   0.00   29.3    84    0.0     0     0.0   732.3    0.00 
  16    6:30   0.00   29.2    85    0.0     0     0.0   732.3    0.00 
  16    6:40   0.00   29.1    86    0.0     0     0.0   732.4    0.00 
  16    6:50   0.00   29.3    85    0.0     0     0.0   732.5    0.00 
  16    7:00   0.00   29.2    84    0.0     0     0.0   732.5    0.00 
  16    7:10   0.00   28.9    85    0.0     0     0.0   732.5    0.00 
  16    7:20   0.00   28.9    86    0.0     0     0.0   732.6    0.00 
  16    7:30   0.00   28.8    87    0.0     0     0.0   732.6    0.00 
  16    7:40   0.00   28.9    87    0.0     0     0.0   732.8    0.00 
  16    7:50   0.00   28.8    87    0.0     0     0.0   732.9    0.00 
  16    8:00   0.01   28.8    88    0.0     0     0.0   733.0    0.00 
  16    8:10   0.01   29.1    87    0.0     0     0.0   733.2    0.00 
  16    8:20   0.01   29.3    87    0.0     0     0.0   733.3    0.00 
  16    8:30   0.01   29.6    87    0.0     0     0.0   733.4    0.00 
  16    8:40   0.01   29.7    86    0.0     0     0.0   733.5    0.00 
  16    8:50   0.02   29.1    88    0.0     0     0.0   733.5    0.00 
  16    9:00   0.03   29.4    88    0.0     0     0.0   733.6    0.00 
  16    9:10   0.04   30.2    85    0.0     0     0.0   733.7    0.00 
  16    9:20   0.02   30.4    84    0.0     0     0.0   733.6    0.00 
  16    9:30   0.04   29.8    84    0.9   177     8.4   733.7    0.00 
  16    9:40   0.04   31.6    80    5.3   189    10.2   733.8    0.00 
  16    9:50   0.03   31.1    81    3.8   167     6.0   733.9    0.00 
  16   10:00   0.02   31.1    80    4.4   190     7.2   734.0    0.01 
  16   10:10   0.02   30.9    82    1.5   158     3.6   734.1    0.01 

Return to Headquarters, Valles Caldera graphs page.


Western Regional Climate Center,wrcc@dri.edu